sensor_id;sensor_type;location;lat;lon;timestamp;temperature;humidity
33931;DHT22;20215;53.130;6.408;2023-01-13T00:00:01;15.80;91.30
33931;DHT22;20215;53.130;6.408;2023-01-13T00:02:28;15.80;91.40
33931;DHT22;20215;53.130;6.408;2023-01-13T00:04:53;15.80;91.00
33931;DHT22;20215;53.130;6.408;2023-01-13T00:07:19;15.80;91.20
33931;DHT22;20215;53.130;6.408;2023-01-13T00:09:45;15.80;91.40
33931;DHT22;20215;53.130;6.408;2023-01-13T00:12:10;15.80;91.30
33931;DHT22;20215;53.130;6.408;2023-01-13T00:14:36;15.80;91.40
33931;DHT22;20215;53.130;6.408;2023-01-13T00:17:03;15.80;91.30
33931;DHT22;20215;53.130;6.408;2023-01-13T00:19:28;15.80;91.30
33931;DHT22;20215;53.130;6.408;2023-01-13T00:21:54;15.80;91.30
33931;DHT22;20215;53.130;6.408;2023-01-13T00:24:19;15.80;91.20
33931;DHT22;20215;53.130;6.408;2023-01-13T00:26:45;15.80;91.20
33931;DHT22;20215;53.130;6.408;2023-01-13T00:29:11;15.80;91.20
33931;DHT22;20215;53.130;6.408;2023-01-13T00:31:36;15.80;91.20
33931;DHT22;20215;53.130;6.408;2023-01-13T00:34:02;15.80;90.90
33931;DHT22;20215;53.130;6.408;2023-01-13T00:36:29;15.80;90.90
33931;DHT22;20215;53.130;6.408;2023-01-13T00:38:55;15.70;90.50
33931;DHT22;20215;53.130;6.408;2023-01-13T00:41:22;15.80;90.60
33931;DHT22;20215;53.130;6.408;2023-01-13T00:43:49;15.70;90.80
33931;DHT22;20215;53.130;6.408;2023-01-13T00:46:18;15.80;90.70
33931;DHT22;20215;53.130;6.408;2023-01-13T00:48:44;15.70;90.80
33931;DHT22;20215;53.130;6.408;2023-01-13T00:51:15;15.70;90.60
33931;DHT22;20215;53.130;6.408;2023-01-13T00:53:44;15.70;90.70
33931;DHT22;20215;53.130;6.408;2023-01-13T00:56:15;15.70;90.90
33931;DHT22;20215;53.130;6.408;2023-01-13T00:58:43;15.70;90.90
33931;DHT22;20215;53.130;6.408;2023-01-13T01:01:12;15.70;90.70
33931;DHT22;20215;53.130;6.408;2023-01-13T01:03:38;15.70;91.00
33931;DHT22;20215;53.130;6.408;2023-01-13T01:06:12;15.70;90.90
33931;DHT22;20215;53.130;6.408;2023-01-13T01:08:39;15.70;90.40
33931;DHT22;20215;53.130;6.408;2023-01-13T01:11:10;15.70;90.40
33931;DHT22;20215;53.130;6.408;2023-01-13T01:13:37;15.70;90.80
33931;DHT22;20215;53.130;6.408;2023-01-13T01:16:07;15.70;90.70
33931;DHT22;20215;53.130;6.408;2023-01-13T01:18:35;15.70;90.40
33931;DHT22;20215;53.130;6.408;2023-01-13T01:21:02;15.70;90.50
33931;DHT22;20215;53.130;6.408;2023-01-13T01:23:28;15.70;90.60
33931;DHT22;20215;53.130;6.408;2023-01-13T01:25:58;15.70;90.70
33931;DHT22;20215;53.130;6.408;2023-01-13T01:28:24;15.70;90.70
33931;DHT22;20215;53.130;6.408;2023-01-13T01:30:49;15.70;90.40
33931;DHT22;20215;53.130;6.408;2023-01-13T01:33:15;15.70;90.50
33931;DHT22;20215;53.130;6.408;2023-01-13T01:35:41;15.70;90.40
33931;DHT22;20215;53.130;6.408;2023-01-13T01:38:07;15.70;90.20
33931;DHT22;20215;53.130;6.408;2023-01-13T01:40:32;15.70;90.00
33931;DHT22;20215;53.130;6.408;2023-01-13T01:42:58;15.70;90.10
33931;DHT22;20215;53.130;6.408;2023-01-13T01:45:42;15.70;90.60
33931;DHT22;20215;53.130;6.408;2023-01-13T01:48:08;15.60;90.20
33931;DHT22;20215;53.130;6.408;2023-01-13T01:50:35;15.60;90.30
33931;DHT22;20215;53.130;6.408;2023-01-13T01:53:08;15.60;90.30
33931;DHT22;20215;53.130;6.408;2023-01-13T01:55:35;15.70;90.10
33931;DHT22;20215;53.130;6.408;2023-01-13T01:58:26;15.60;90.10
33931;DHT22;20215;53.130;6.408;2023-01-13T02:00:53;15.60;88.00
33931;DHT22;20215;53.130;6.408;2023-01-13T02:03:18;15.60;89.80
33931;DHT22;20215;53.130;6.408;2023-01-13T02:05:44;15.60;90.10
33931;DHT22;20215;53.130;6.408;2023-01-13T02:08:12;15.60;89.70
33931;DHT22;20215;53.130;6.408;2023-01-13T02:10:39;15.60;90.00
33931;DHT22;20215;53.130;6.408;2023-01-13T02:13:08;15.60;90.10
33931;DHT22;20215;53.130;6.408;2023-01-13T02:15:58;15.60;89.80
33931;DHT22;20215;53.130;6.408;2023-01-13T02:18:59;15.60;90.00
33931;DHT22;20215;53.130;6.408;2023-01-13T02:21:42;15.60;88.90
33931;DHT22;20215;53.130;6.408;2023-01-13T02:29:59;15.60;88.40
33931;DHT22;20215;53.130;6.408;2023-01-13T02:33:12;15.60;88.70
33931;DHT22;20215;53.130;6.408;2023-01-13T02:39:01;15.60;88.80
33931;DHT22;20215;53.130;6.408;2023-01-13T02:44:25;15.50;88.50
33931;DHT22;20215;53.130;6.408;2023-01-13T02:47:05;15.50;89.50
33931;DHT22;20215;53.130;6.408;2023-01-13T02:49:42;15.50;89.80
33931;DHT22;20215;53.130;6.408;2023-01-13T02:52:17;15.60;89.20
33931;DHT22;20215;53.130;6.408;2023-01-13T02:54:50;15.60;88.70
33931;DHT22;20215;53.130;6.408;2023-01-13T02:57:18;15.60;89.50
33931;DHT22;20215;53.130;6.408;2023-01-13T02:59:45;15.60;89.50
33931;DHT22;20215;53.130;6.408;2023-01-13T03:02:15;15.60;88.60
33931;DHT22;20215;53.130;6.408;2023-01-13T03:09:59;15.60;88.10
33931;DHT22;20215;53.130;6.408;2023-01-13T03:25:59;15.60;86.40
33931;DHT22;20215;53.130;6.408;2023-01-13T03:28:32;15.50;85.80
33931;DHT22;20215;53.130;6.408;2023-01-13T03:31:14;15.50;86.90
33931;DHT22;20215;53.130;6.408;2023-01-13T03:33:51;15.50;87.10
33931;DHT22;20215;53.130;6.408;2023-01-13T03:36:22;15.50;86.50
33931;DHT22;20215;53.130;6.408;2023-01-13T03:38:57;15.50;87.40
33931;DHT22;20215;53.130;6.408;2023-01-13T03:41:34;15.50;87.60
33931;DHT22;20215;53.130;6.408;2023-01-13T03:44:18;15.60;88.10
33931;DHT22;20215;53.130;6.408;2023-01-13T03:47:32;15.60;87.30
33931;DHT22;20215;53.130;6.408;2023-01-13T03:52:28;15.60;87.10
33931;DHT22;20215;53.130;6.408;2023-01-13T03:55:05;15.60;87.40
33931;DHT22;20215;53.130;6.408;2023-01-13T03:57:35;15.60;86.70
33931;DHT22;20215;53.130;6.408;2023-01-13T04:00:04;15.60;86.30
33931;DHT22;20215;53.130;6.408;2023-01-13T04:02:59;15.60;86.90
33931;DHT22;20215;53.130;6.408;2023-01-13T04:05:30;15.60;85.30
33931;DHT22;20215;53.130;6.408;2023-01-13T04:08:17;15.60;86.60
33931;DHT22;20215;53.130;6.408;2023-01-13T04:13:28;15.60;86.10
33931;DHT22;20215;53.130;6.408;2023-01-13T04:15:55;15.50;86.60
33931;DHT22;20215;53.130;6.408;2023-01-13T04:18:22;15.50;86.60
33931;DHT22;20215;53.130;6.408;2023-01-13T04:20:50;15.50;85.80
33931;DHT22;20215;53.130;6.408;2023-01-13T04:23:17;15.50;86.30
33931;DHT22;20215;53.130;6.408;2023-01-13T04:25:44;15.50;86.00
33931;DHT22;20215;53.130;6.408;2023-01-13T04:28:11;15.50;86.00
33931;DHT22;20215;53.130;6.408;2023-01-13T04:30:36;15.50;86.00
33931;DHT22;20215;53.130;6.408;2023-01-13T04:33:02;15.50;86.60
33931;DHT22;20215;53.130;6.408;2023-01-13T04:35:30;15.50;87.00
33931;DHT22;20215;53.130;6.408;2023-01-13T04:37:55;15.50;85.90
33931;DHT22;20215;53.130;6.408;2023-01-13T04:40:21;15.50;86.50
33931;DHT22;20215;53.130;6.408;2023-01-13T04:42:47;15.50;86.80
33931;DHT22;20215;53.130;6.408;2023-01-13T04:45:13;15.50;86.50
33931;DHT22;20215;53.130;6.408;2023-01-13T04:47:39;15.60;86.50
33931;DHT22;20215;53.130;6.408;2023-01-13T04:50:07;15.60;87.10
33931;DHT22;20215;53.130;6.408;2023-01-13T04:52:32;15.60;86.30
33931;DHT22;20215;53.130;6.408;2023-01-13T04:54:58;15.60;85.50
33931;DHT22;20215;53.130;6.408;2023-01-13T04:57:24;15.60;85.80
33931;DHT22;20215;53.130;6.408;2023-01-13T04:59:50;15.60;86.10
33931;DHT22;20215;53.130;6.408;2023-01-13T05:02:16;15.60;85.20
33931;DHT22;20215;53.130;6.408;2023-01-13T05:04:47;15.50;85.30
33931;DHT22;20215;53.130;6.408;2023-01-13T05:07:14;15.50;84.30
33931;DHT22;20215;53.130;6.408;2023-01-13T05:09:40;15.50;85.90
33931;DHT22;20215;53.130;6.408;2023-01-13T05:12:07;15.50;85.90
33931;DHT22;20215;53.130;6.408;2023-01-13T05:14:52;15.60;86.60
33931;DHT22;20215;53.130;6.408;2023-01-13T05:17:36;15.60;86.30
33931;DHT22;20215;53.130;6.408;2023-01-13T05:20:02;15.50;84.50
33931;DHT22;20215;53.130;6.408;2023-01-13T05:22:28;15.60;86.00
33931;DHT22;20215;53.130;6.408;2023-01-13T05:25:12;15.60;85.90
33931;DHT22;20215;53.130;6.408;2023-01-13T05:27:58;15.50;86.00
33931;DHT22;20215;53.130;6.408;2023-01-13T05:30:27;15.50;86.00
33931;DHT22;20215;53.130;6.408;2023-01-13T05:32:53;15.60;86.20
33931;DHT22;20215;53.130;6.408;2023-01-13T05:35:19;15.60;85.90
33931;DHT22;20215;53.130;6.408;2023-01-13T05:37:45;15.60;85.80
33931;DHT22;20215;53.130;6.408;2023-01-13T05:40:13;15.60;84.80
33931;DHT22;20215;53.130;6.408;2023-01-13T05:43:08;15.60;85.00
33931;DHT22;20215;53.130;6.408;2023-01-13T05:46:03;15.60;85.00
33931;DHT22;20215;53.130;6.408;2023-01-13T05:48:35;15.60;84.20
33931;DHT22;20215;53.130;6.408;2023-01-13T05:51:02;15.60;85.60
33931;DHT22;20215;53.130;6.408;2023-01-13T05:53:28;15.60;85.50
33931;DHT22;20215;53.130;6.408;2023-01-13T05:55:54;15.60;85.70
33931;DHT22;20215;53.130;6.408;2023-01-13T05:58:21;15.60;85.30
33931;DHT22;20215;53.130;6.408;2023-01-13T06:00:48;15.60;83.80
33931;DHT22;20215;53.130;6.408;2023-01-13T06:03:14;15.60;84.40
33931;DHT22;20215;53.130;6.408;2023-01-13T06:05:40;15.60;84.60
33931;DHT22;20215;53.130;6.408;2023-01-13T06:08:07;15.60;84.40
33931;DHT22;20215;53.130;6.408;2023-01-13T06:10:34;15.50;84.80
33931;DHT22;20215;53.130;6.408;2023-01-13T06:13:00;15.60;84.30
33931;DHT22;20215;53.130;6.408;2023-01-13T06:15:26;15.50;83.90
33931;DHT22;20215;53.130;6.408;2023-01-13T06:17:52;15.50;84.80
33931;DHT22;20215;53.130;6.408;2023-01-13T06:20:18;15.50;84.80
33931;DHT22;20215;53.130;6.408;2023-01-13T06:22:48;15.50;84.70
33931;DHT22;20215;53.130;6.408;2023-01-13T06:27:58;15.50;83.90
33931;DHT22;20215;53.130;6.408;2023-01-13T06:30:31;15.60;84.40
33931;DHT22;20215;53.130;6.408;2023-01-13T06:33:00;15.50;83.90
33931;DHT22;20215;53.130;6.408;2023-01-13T06:35:30;15.50;83.60
33931;DHT22;20215;53.130;6.408;2023-01-13T06:37:58;15.50;84.40
33931;DHT22;20215;53.130;6.408;2023-01-13T06:40:26;15.50;84.00
33931;DHT22;20215;53.130;6.408;2023-01-13T06:42:53;15.50;84.10
33931;DHT22;20215;53.130;6.408;2023-01-13T06:45:38;15.50;83.90
33931;DHT22;20215;53.130;6.408;2023-01-13T06:48:05;15.50;84.20
33931;DHT22;20215;53.130;6.408;2023-01-13T06:50:31;15.50;84.60
33931;DHT22;20215;53.130;6.408;2023-01-13T06:52:56;15.50;84.50
33931;DHT22;20215;53.130;6.408;2023-01-13T06:55:22;15.50;84.40
33931;DHT22;20215;53.130;6.408;2023-01-13T07:00:15;15.50;84.40
33931;DHT22;20215;53.130;6.408;2023-01-13T07:02:40;15.50;84.40
33931;DHT22;20215;53.130;6.408;2023-01-13T07:05:06;15.50;84.80
33931;DHT22;20215;53.130;6.408;2023-01-13T07:07:32;15.50;84.90
33931;DHT22;20215;53.130;6.408;2023-01-13T07:09:58;15.50;85.00
33931;DHT22;20215;53.130;6.408;2023-01-13T07:12:24;15.50;85.20
33931;DHT22;20215;53.130;6.408;2023-01-13T07:14:49;15.50;85.40
33931;DHT22;20215;53.130;6.408;2023-01-13T07:17:33;15.50;85.20
33931;DHT22;20215;53.130;6.408;2023-01-13T07:19:59;15.50;85.50
33931;DHT22;20215;53.130;6.408;2023-01-13T07:22:24;15.50;85.50
33931;DHT22;20215;53.130;6.408;2023-01-13T07:24:50;15.50;85.50
33931;DHT22;20215;53.130;6.408;2023-01-13T07:27:16;15.50;85.50
33931;DHT22;20215;53.130;6.408;2023-01-13T07:29:41;15.50;85.70
33931;DHT22;20215;53.130;6.408;2023-01-13T07:32:08;15.50;85.40
33931;DHT22;20215;53.130;6.408;2023-01-13T07:34:34;15.50;85.20
33931;DHT22;20215;53.130;6.408;2023-01-13T07:36:59;15.50;85.40
33931;DHT22;20215;53.130;6.408;2023-01-13T07:39:25;15.50;85.50
33931;DHT22;20215;53.130;6.408;2023-01-13T07:41:50;15.50;85.20
33931;DHT22;20215;53.130;6.408;2023-01-13T07:44:35;15.50;85.10
33931;DHT22;20215;53.130;6.408;2023-01-13T07:47:00;15.50;85.40
33931;DHT22;20215;53.130;6.408;2023-01-13T07:49:26;15.50;85.80
33931;DHT22;20215;53.130;6.408;2023-01-13T07:51:51;15.40;85.60
33931;DHT22;20215;53.130;6.408;2023-01-13T07:54:17;15.40;85.70
33931;DHT22;20215;53.130;6.408;2023-01-13T07:56:43;15.40;86.00
33931;DHT22;20215;53.130;6.408;2023-01-13T07:59:08;15.40;85.70
33931;DHT22;20215;53.130;6.408;2023-01-13T08:01:34;15.40;85.80
33931;DHT22;20215;53.130;6.408;2023-01-13T08:03:59;15.40;85.90
33931;DHT22;20215;53.130;6.408;2023-01-13T08:06:25;15.40;85.90
33931;DHT22;20215;53.130;6.408;2023-01-13T08:08:51;15.40;86.00
33931;DHT22;20215;53.130;6.408;2023-01-13T08:11:17;15.50;86.10
33931;DHT22;20215;53.130;6.408;2023-01-13T08:13:43;15.40;86.10
33931;DHT22;20215;53.130;6.408;2023-01-13T08:16:11;15.50;86.00
33931;DHT22;20215;53.130;6.408;2023-01-13T08:18:37;15.50;85.90
33931;DHT22;20215;53.130;6.408;2023-01-13T08:21:11;15.50;86.00
33931;DHT22;20215;53.130;6.408;2023-01-13T08:23:38;15.50;85.70
33931;DHT22;20215;53.130;6.408;2023-01-13T08:26:09;15.50;86.10
33931;DHT22;20215;53.130;6.408;2023-01-13T08:28:35;15.50;85.20
33931;DHT22;20215;53.130;6.408;2023-01-13T08:31:03;15.40;84.80
33931;DHT22;20215;53.130;6.408;2023-01-13T08:33:29;15.40;85.50
33931;DHT22;20215;53.130;6.408;2023-01-13T08:35:54;15.40;85.50
33931;DHT22;20215;53.130;6.408;2023-01-13T08:38:21;15.40;85.60
33931;DHT22;20215;53.130;6.408;2023-01-13T08:40:46;15.40;85.80
33931;DHT22;20215;53.130;6.408;2023-01-13T08:43:12;15.40;85.70
33931;DHT22;20215;53.130;6.408;2023-01-13T08:45:38;15.40;85.70
33931;DHT22;20215;53.130;6.408;2023-01-13T08:48:04;15.40;85.00
33931;DHT22;20215;53.130;6.408;2023-01-13T08:50:30;15.40;85.30
33931;DHT22;20215;53.130;6.408;2023-01-13T08:52:56;15.40;85.60
33931;DHT22;20215;53.130;6.408;2023-01-13T08:55:22;15.40;85.30
33931;DHT22;20215;53.130;6.408;2023-01-13T08:57:47;15.40;85.50
33931;DHT22;20215;53.130;6.408;2023-01-13T09:00:13;15.40;84.80
33931;DHT22;20215;53.130;6.408;2023-01-13T09:02:41;15.50;85.10
33931;DHT22;20215;53.130;6.408;2023-01-13T09:05:07;15.50;85.20
33931;DHT22;20215;53.130;6.408;2023-01-13T09:07:35;15.50;85.60
33931;DHT22;20215;53.130;6.408;2023-01-13T09:10:02;15.50;85.50
33931;DHT22;20215;53.130;6.408;2023-01-13T09:12:28;15.50;85.50
33931;DHT22;20215;53.130;6.408;2023-01-13T09:15:13;15.50;85.60
33931;DHT22;20215;53.130;6.408;2023-01-13T09:17:38;15.50;85.40
33931;DHT22;20215;53.130;6.408;2023-01-13T09:20:04;15.50;85.00
33931;DHT22;20215;53.130;6.408;2023-01-13T09:22:30;15.50;84.80
33931;DHT22;20215;53.130;6.408;2023-01-13T09:24:56;15.50;85.40
33931;DHT22;20215;53.130;6.408;2023-01-13T09:27:22;15.50;85.80
33931;DHT22;20215;53.130;6.408;2023-01-13T09:29:48;15.50;85.40
33931;DHT22;20215;53.130;6.408;2023-01-13T09:32:14;15.50;84.90
33931;DHT22;20215;53.130;6.408;2023-01-13T09:34:39;15.50;84.80
33931;DHT22;20215;53.130;6.408;2023-01-13T09:37:25;15.50;85.30
33931;DHT22;20215;53.130;6.408;2023-01-13T09:39:50;15.40;85.10
33931;DHT22;20215;53.130;6.408;2023-01-13T09:45:22;15.40;85.50
33931;DHT22;20215;53.130;6.408;2023-01-13T09:48:04;15.40;85.70
33931;DHT22;20215;53.130;6.408;2023-01-13T09:53:14;15.40;85.70
33931;DHT22;20215;53.130;6.408;2023-01-13T09:55:43;15.40;85.90
33931;DHT22;20215;53.130;6.408;2023-01-13T09:58:15;15.40;86.10
33931;DHT22;20215;53.130;6.408;2023-01-13T10:03:22;15.50;85.90
33931;DHT22;20215;53.130;6.408;2023-01-13T10:06:12;15.50;85.80
33931;DHT22;20215;53.130;6.408;2023-01-13T10:08:40;15.50;85.70
33931;DHT22;20215;53.130;6.408;2023-01-13T10:11:19;15.40;86.10
33931;DHT22;20215;53.130;6.408;2023-01-13T10:14:56;15.40;85.90
33931;DHT22;20215;53.130;6.408;2023-01-13T10:19:30;15.40;86.00
33931;DHT22;20215;53.130;6.408;2023-01-13T10:27:39;15.40;85.50
33931;DHT22;20215;53.130;6.408;2023-01-13T10:32:42;15.40;85.90
33931;DHT22;20215;53.130;6.408;2023-01-13T10:35:08;15.40;86.10
33931;DHT22;20215;53.130;6.408;2023-01-13T10:37:33;15.40;86.00
33931;DHT22;20215;53.130;6.408;2023-01-13T10:40:02;15.40;86.00
33931;DHT22;20215;53.130;6.408;2023-01-13T10:42:28;15.40;86.10
33931;DHT22;20215;53.130;6.408;2023-01-13T10:44:56;15.50;86.20
33931;DHT22;20215;53.130;6.408;2023-01-13T10:47:31;15.50;86.30
33931;DHT22;20215;53.130;6.408;2023-01-13T10:52:40;15.50;85.70
33931;DHT22;20215;53.130;6.408;2023-01-13T10:55:30;15.50;85.90
33931;DHT22;20215;53.130;6.408;2023-01-13T10:58:16;15.50;85.90
33931;DHT22;20215;53.130;6.408;2023-01-13T11:00:42;15.50;85.80
33931;DHT22;20215;53.130;6.408;2023-01-13T11:03:22;15.50;86.00
33931;DHT22;20215;53.130;6.408;2023-01-13T11:05:58;15.50;85.50
33931;DHT22;20215;53.130;6.408;2023-01-13T11:08:45;15.50;85.50
33931;DHT22;20215;53.130;6.408;2023-01-13T11:11:36;15.50;85.50
33931;DHT22;20215;53.130;6.408;2023-01-13T11:14:18;15.50;85.80
33931;DHT22;20215;53.130;6.408;2023-01-13T11:20:19;15.50;86.00
33931;DHT22;20215;53.130;6.408;2023-01-13T11:25:26;15.50;86.00
33931;DHT22;20215;53.130;6.408;2023-01-13T11:30:51;15.50;86.10
33931;DHT22;20215;53.130;6.408;2023-01-13T11:36:27;15.50;85.80
33931;DHT22;20215;53.130;6.408;2023-01-13T11:39:00;15.50;86.30
33931;DHT22;20215;53.130;6.408;2023-01-13T11:41:51;15.50;86.30
33931;DHT22;20215;53.130;6.408;2023-01-13T11:44:44;15.50;85.90
33931;DHT22;20215;53.130;6.408;2023-01-13T11:47:11;15.50;86.40
33931;DHT22;20215;53.130;6.408;2023-01-13T11:49:37;15.60;86.20
33931;DHT22;20215;53.130;6.408;2023-01-13T11:52:22;15.60;86.20
33931;DHT22;20215;53.130;6.408;2023-01-13T11:55:00;15.60;85.90
33931;DHT22;20215;53.130;6.408;2023-01-13T12:00:44;15.60;85.60
33931;DHT22;20215;53.130;6.408;2023-01-13T12:11:30;15.60;86.20
33931;DHT22;20215;53.130;6.408;2023-01-13T12:14:24;15.60;85.40
33931;DHT22;20215;53.130;6.408;2023-01-13T12:16:55;15.60;85.50
33931;DHT22;20215;53.130;6.408;2023-01-13T12:19:28;15.50;85.90
33931;DHT22;20215;53.130;6.408;2023-01-13T12:22:11;15.60;86.10
33931;DHT22;20215;53.130;6.408;2023-01-13T12:27:20;15.60;85.90
33931;DHT22;20215;53.130;6.408;2023-01-13T12:29:48;15.50;85.30
33931;DHT22;20215;53.130;6.408;2023-01-13T12:32:17;15.60;86.20
33931;DHT22;20215;53.130;6.408;2023-01-13T12:43:23;15.60;85.60
33931;DHT22;20215;53.130;6.408;2023-01-13T12:53:58;15.70;85.80
33931;DHT22;20215;53.130;6.408;2023-01-13T12:56:43;15.70;86.00
33931;DHT22;20215;53.130;6.408;2023-01-13T13:01:46;15.70;85.60
33931;DHT22;20215;53.130;6.408;2023-01-13T13:04:47;15.70;85.80
33931;DHT22;20215;53.130;6.408;2023-01-13T13:07:25;15.70;85.30
33931;DHT22;20215;53.130;6.408;2023-01-13T13:09:59;15.70;85.30
33931;DHT22;20215;53.130;6.408;2023-01-13T13:15:26;15.70;85.60
33931;DHT22;20215;53.130;6.408;2023-01-13T13:26:14;15.70;85.80
33931;DHT22;20215;53.130;6.408;2023-01-13T13:34:18;15.70;85.70
33931;DHT22;20215;53.130;6.408;2023-01-13T13:39:21;15.80;85.80
33931;DHT22;20215;53.130;6.408;2023-01-13T13:42:17;15.80;85.50
33931;DHT22;20215;53.130;6.408;2023-01-13T13:45:17;15.80;85.50
33931;DHT22;20215;53.130;6.408;2023-01-13T13:48:27;15.80;85.40
33931;DHT22;20215;53.130;6.408;2023-01-13T13:50:56;15.80;85.70
33931;DHT22;20215;53.130;6.408;2023-01-13T13:53:33;15.80;85.60
33931;DHT22;20215;53.130;6.408;2023-01-13T13:56:02;15.80;85.00
33931;DHT22;20215;53.130;6.408;2023-01-13T13:58:30;15.80;85.20
33931;DHT22;20215;53.130;6.408;2023-01-13T14:00:58;15.80;85.30
33931;DHT22;20215;53.130;6.408;2023-01-13T14:03:31;15.80;85.40
33931;DHT22;20215;53.130;6.408;2023-01-13T14:05:59;15.80;85.00
33931;DHT22;20215;53.130;6.408;2023-01-13T14:08:28;15.80;85.30
33931;DHT22;20215;53.130;6.408;2023-01-13T14:10:54;15.80;85.30
33931;DHT22;20215;53.130;6.408;2023-01-13T14:15:54;15.80;85.30
33931;DHT22;20215;53.130;6.408;2023-01-13T14:18:21;15.90;85.90
33931;DHT22;20215;53.130;6.408;2023-01-13T14:20:58;15.80;85.20
33931;DHT22;20215;53.130;6.408;2023-01-13T14:23:31;15.90;85.10
33931;DHT22;20215;53.130;6.408;2023-01-13T14:26:08;15.90;85.10
33931;DHT22;20215;53.130;6.408;2023-01-13T14:28:38;15.80;85.00
33931;DHT22;20215;53.130;6.408;2023-01-13T14:31:06;15.80;85.00
33931;DHT22;20215;53.130;6.408;2023-01-13T14:33:37;15.80;85.20
33931;DHT22;20215;53.130;6.408;2023-01-13T14:41:44;15.80;84.70
33931;DHT22;20215;53.130;6.408;2023-01-13T14:46:44;15.70;85.20
33931;DHT22;20215;53.130;6.408;2023-01-13T14:52:20;15.70;85.00
33931;DHT22;20215;53.130;6.408;2023-01-13T15:00:03;15.70;85.20
33931;DHT22;20215;53.130;6.408;2023-01-13T15:05:31;15.70;85.20
33931;DHT22;20215;53.130;6.408;2023-01-13T15:13:02;15.70;84.70
33931;DHT22;20215;53.130;6.408;2023-01-13T15:15:38;15.70;85.10
33931;DHT22;20215;53.130;6.408;2023-01-13T15:18:12;15.70;85.00
33931;DHT22;20215;53.130;6.408;2023-01-13T15:20:39;15.70;85.00
33931;DHT22;20215;53.130;6.408;2023-01-13T15:23:05;15.70;85.00
33931;DHT22;20215;53.130;6.408;2023-01-13T15:25:32;15.70;85.00
33931;DHT22;20215;53.130;6.408;2023-01-13T15:27:58;15.70;85.10
33931;DHT22;20215;53.130;6.408;2023-01-13T15:30:25;15.70;85.00
33931;DHT22;20215;53.130;6.408;2023-01-13T15:32:55;15.70;85.00
33931;DHT22;20215;53.130;6.408;2023-01-13T15:35:22;15.70;85.00
33931;DHT22;20215;53.130;6.408;2023-01-13T15:37:49;15.70;85.10
33931;DHT22;20215;53.130;6.408;2023-01-13T15:40:28;15.70;85.00
33931;DHT22;20215;53.130;6.408;2023-01-13T15:42:54;15.70;85.00
33931;DHT22;20215;53.130;6.408;2023-01-13T15:45:39;15.70;85.10
33931;DHT22;20215;53.130;6.408;2023-01-13T15:48:24;15.60;84.90
33931;DHT22;20215;53.130;6.408;2023-01-13T15:50:51;15.60;85.10
33931;DHT22;20215;53.130;6.408;2023-01-13T15:53:16;15.70;85.40
33931;DHT22;20215;53.130;6.408;2023-01-13T15:55:44;15.70;85.40
33931;DHT22;20215;53.130;6.408;2023-01-13T15:58:14;15.70;85.40
33931;DHT22;20215;53.130;6.408;2023-01-13T16:00:41;15.70;85.00
33931;DHT22;20215;53.130;6.408;2023-01-13T16:03:14;15.70;85.30
33931;DHT22;20215;53.130;6.408;2023-01-13T16:05:41;15.70;85.30
33931;DHT22;20215;53.130;6.408;2023-01-13T16:08:20;15.70;85.20
33931;DHT22;20215;53.130;6.408;2023-01-13T16:10:47;15.70;85.40
33931;DHT22;20215;53.130;6.408;2023-01-13T16:13:14;15.70;85.50
33931;DHT22;20215;53.130;6.408;2023-01-13T16:15:48;15.70;85.30
33931;DHT22;20215;53.130;6.408;2023-01-13T16:18:19;15.70;85.10
33931;DHT22;20215;53.130;6.408;2023-01-13T16:20:45;15.70;85.70
33931;DHT22;20215;53.130;6.408;2023-01-13T16:23:11;15.70;85.40
33931;DHT22;20215;53.130;6.408;2023-01-13T16:25:38;15.70;85.20
33931;DHT22;20215;53.130;6.408;2023-01-13T16:28:03;15.70;85.30
33931;DHT22;20215;53.130;6.408;2023-01-13T16:30:34;15.70;85.00
33931;DHT22;20215;53.130;6.408;2023-01-13T16:33:00;15.70;85.10
33931;DHT22;20215;53.130;6.408;2023-01-13T16:35:27;15.70;85.00
33931;DHT22;20215;53.130;6.408;2023-01-13T16:37:53;15.70;85.10
33931;DHT22;20215;53.130;6.408;2023-01-13T16:40:32;15.70;85.10
33931;DHT22;20215;53.130;6.408;2023-01-13T16:42:59;15.70;85.20
33931;DHT22;20215;53.130;6.408;2023-01-13T16:45:26;15.70;85.40
33931;DHT22;20215;53.130;6.408;2023-01-13T16:47:52;15.70;85.50
33931;DHT22;20215;53.130;6.408;2023-01-13T16:50:38;15.70;85.60
33931;DHT22;20215;53.130;6.408;2023-01-13T16:53:08;15.70;85.60
33931;DHT22;20215;53.130;6.408;2023-01-13T16:55:35;15.70;85.70
33931;DHT22;20215;53.130;6.408;2023-01-13T16:58:02;15.70;85.60
33931;DHT22;20215;53.130;6.408;2023-01-13T17:00:30;15.70;85.80
33931;DHT22;20215;53.130;6.408;2023-01-13T17:02:56;15.70;85.60
33931;DHT22;20215;53.130;6.408;2023-01-13T17:05:25;15.70;85.70
33931;DHT22;20215;53.130;6.408;2023-01-13T17:07:51;15.70;85.60
33931;DHT22;20215;53.130;6.408;2023-01-13T17:10:19;15.70;85.60
33931;DHT22;20215;53.130;6.408;2023-01-13T17:12:45;15.70;85.60
33931;DHT22;20215;53.130;6.408;2023-01-13T17:15:12;15.70;85.50
33931;DHT22;20215;53.130;6.408;2023-01-13T17:17:39;15.70;85.60
33931;DHT22;20215;53.130;6.408;2023-01-13T17:20:05;15.70;85.70
33931;DHT22;20215;53.130;6.408;2023-01-13T17:22:33;15.70;85.80
33931;DHT22;20215;53.130;6.408;2023-01-13T17:24:58;15.70;85.80
33931;DHT22;20215;53.130;6.408;2023-01-13T17:27:24;15.70;85.90
33931;DHT22;20215;53.130;6.408;2023-01-13T17:29:50;15.70;85.90
33931;DHT22;20215;53.130;6.408;2023-01-13T17:32:20;15.70;85.90
33931;DHT22;20215;53.130;6.408;2023-01-13T17:34:46;15.70;85.80
33931;DHT22;20215;53.130;6.408;2023-01-13T17:37:12;15.70;85.90
33931;DHT22;20215;53.130;6.408;2023-01-13T17:39:39;15.70;86.00
33931;DHT22;20215;53.130;6.408;2023-01-13T17:42:05;15.70;86.10
33931;DHT22;20215;53.130;6.408;2023-01-13T17:44:30;15.70;86.00
33931;DHT22;20215;53.130;6.408;2023-01-13T17:46:56;15.70;86.20
33931;DHT22;20215;53.130;6.408;2023-01-13T17:49:21;15.70;86.30
33931;DHT22;20215;53.130;6.408;2023-01-13T17:51:47;15.70;86.10
33931;DHT22;20215;53.130;6.408;2023-01-13T17:54:15;15.70;86.20
33931;DHT22;20215;53.130;6.408;2023-01-13T17:56:41;15.70;86.20
33931;DHT22;20215;53.130;6.408;2023-01-13T17:59:09;15.70;86.10
33931;DHT22;20215;53.130;6.408;2023-01-13T18:01:35;15.70;86.00
33931;DHT22;20215;53.130;6.408;2023-01-13T18:04:01;15.70;86.00
33931;DHT22;20215;53.130;6.408;2023-01-13T18:06:27;15.70;86.00
33931;DHT22;20215;53.130;6.408;2023-01-13T18:08:53;15.70;86.00
33931;DHT22;20215;53.130;6.408;2023-01-13T18:11:20;15.70;86.10
33931;DHT22;20215;53.130;6.408;2023-01-13T18:13:51;15.70;86.10
33931;DHT22;20215;53.130;6.408;2023-01-13T18:16:19;15.70;86.00
33931;DHT22;20215;53.130;6.408;2023-01-13T18:18:47;15.70;86.10
33931;DHT22;20215;53.130;6.408;2023-01-13T18:21:23;15.70;86.00
33931;DHT22;20215;53.130;6.408;2023-01-13T18:24:11;15.70;86.00